Time;durP1;ratioP1;P1;durP2;ratioP2;P2;SDS_P1;SDS_P2;PMS_P1;PMS_P2;Temp;Humidity;BMP_temperature;BMP_pressure;BME280_temperature;BME280_humidity;BME280_pressure;Samples;Min_cycle;Max_cycle;Signal;HPM_P1;HPM_P2
2023/10/06 00:01:13;;;;;;;11.65;5.80;;;;;;;20.79;62.24;101778.12;2379493;74;50258;-75
2023/10/06 00:04:15;;;;;;;10.45;5.72;;;;;;;20.79;62.26;101790.23;2315299;74;51638;-75
2023/10/06 00:07:20;;;;;;;13.65;5.60;;;;;;;20.78;62.23;101787.19;2368716;74;51502;-75
2023/10/06 00:10:26;;;;;;;12.58;5.80;;;;;;;20.78;62.24;101791.22;2379616;74;22299;-75
2023/10/06 00:13:31;;;;;;;10.78;5.28;;;;;;;20.78;62.23;101783.16;2378591;74;22825;-75
2023/10/06 00:16:44;;;;;;;11.88;5.33;;;;;;;20.78;62.21;101780.46;2368427;74;51508;-74
2023/10/06 00:19:41;;;;;;;13.03;4.92;;;;;;;20.77;62.38;101779.63;2353734;75;22631;-73
2023/10/06 00:22:43;;;;;;;12.25;5.45;;;;;;;20.76;62.22;101782.00;2361385;75;51943;-74
2023/10/06 00:25:46;;;;;;;12.60;4.92;;;;;;;20.77;62.20;101780.14;2336612;75;50608;-72
2023/10/06 00:28:48;;;;;;;8.80;4.80;;;;;;;20.77;62.16;101782.83;2336268;75;51111;-74
2023/10/06 00:31:50;;;;;;;14.80;5.65;;;;;;;20.76;62.24;101783.34;2363999;75;50364;-74
2023/10/06 00:35:29;;;;;;;10.98;5.10;;;;;;;20.76;62.22;101784.69;2363602;75;50880;-74
2023/10/06 00:38:17;;;;;;;10.85;5.17;;;;;;;20.76;62.13;101771.23;2336104;75;22206;-75
2023/10/06 00:41:21;;;;;;;9.33;4.53;;;;;;;20.75;62.19;101770.88;2336665;75;51519;-75
2023/10/06 00:44:25;;;;;;;9.80;4.80;;;;;;;20.77;62.11;101765.34;2335983;75;50992;-74
2023/10/06 00:47:38;;;;;;;12.23;5.35;;;;;;;20.75;62.15;101774.92;2364124;75;51633;-75
2023/10/06 00:50:32;;;;;;;8.20;4.58;;;;;;;20.76;62.12;101777.13;2356403;74;22434;-75
2023/10/06 00:53:35;;;;;;;9.33;4.60;;;;;;;20.75;62.16;101771.39;2371452;73;52380;-75
2023/10/06 00:56:38;;;;;;;13.15;4.95;;;;;;;20.75;62.13;101778.95;2409199;73;49872;-72
2023/10/06 00:59:41;;;;;;;11.25;4.87;;;;;;;20.76;62.18;101771.75;2409249;73;51549;-74
2023/10/06 01:02:44;;;;;;;7.95;4.28;;;;;;;20.75;62.13;101774.08;2408689;73;50501;-72
2023/10/06 01:05:46;;;;;;;10.38;4.67;;;;;;;20.74;62.23;101771.07;2408987;73;50642;-72
2023/10/06 01:08:52;;;;;;;10.28;4.47;;;;;;;20.75;62.27;101761.98;2380601;73;52493;-73
2023/10/06 01:11:53;;;;;;;8.45;4.20;;;;;;;20.73;62.15;101762.17;2373169;73;22303;-72
2023/10/06 01:15:09;;;;;;;11.15;4.92;;;;;;;20.76;62.11;101760.98;2408848;73;51515;-72
2023/10/06 01:18:01;;;;;;;12.28;4.75;;;;;;;20.75;62.09;101763.33;2383612;73;22570;-72
2023/10/06 01:21:17;;;;;;;8.55;4.15;;;;;;;20.74;62.17;101750.90;2328747;74;22920;-72
2023/10/06 01:24:13;;;;;;;9.58;4.95;;;;;;;20.74;62.16;101754.94;2263632;77;22235;-71
2023/10/06 01:27:11;;;;;;;7.42;4.22;;;;;;;20.74;62.17;101761.66;2266051;77;22408;-72
2023/10/06 01:33:20;;;;;;;9.68;4.42;;;;;;;20.72;62.09;101767.20;2267019;77;22559;-72
2023/10/06 01:36:24;;;;;;;8.25;4.47;;;;;;;20.73;62.16;101753.23;2300994;76;51394;-73
2023/10/06 01:39:30;;;;;;;9.65;4.50;;;;;;;20.73;62.11;101759.96;2242349;77;22226;-72
2023/10/06 01:42:30;;;;;;;9.18;4.37;;;;;;;20.73;62.13;101763.99;2242066;77;22878;-72
2023/10/06 01:45:32;;;;;;;6.97;3.75;;;;;;;20.74;62.11;101761.66;2301134;77;52063;-72
2023/10/06 01:48:36;;;;;;;9.15;4.37;;;;;;;20.72;62.01;101762.33;2311541;75;51364;-72
2023/10/06 01:51:42;;;;;;;7.92;3.98;;;;;;;20.72;62.04;101767.20;2337931;74;50111;-72
2023/10/06 01:54:45;;;;;;;5.97;3.95;;;;;;;20.73;62.14;101770.72;2375597;74;51505;-73
2023/10/06 01:57:47;;;;;;;8.20;4.30;;;;;;;20.72;62.09;101766.36;2368056;75;50358;-73
2023/10/06 02:00:50;;;;;;;7.83;3.87;;;;;;;20.72;62.05;101777.13;2375885;74;51342;-74
2023/10/06 02:03:52;;;;;;;7.17;3.92;;;;;;;20.72;62.15;101767.70;2367793;75;51489;-74
2023/10/06 02:06:54;;;;;;;7.55;3.90;;;;;;;20.71;62.08;101771.42;2340849;75;52363;-72
2023/10/06 02:09:57;;;;;;;6.55;3.98;;;;;;;20.71;62.29;101772.77;2340927;75;51412;-72
2023/10/06 02:12:59;;;;;;;7.75;3.80;;;;;;;20.70;62.13;101767.86;2340843;75;50109;-72
2023/10/06 02:16:03;;;;;;;6.67;3.65;;;;;;;20.71;62.03;101772.25;2342833;75;50789;-71
2023/10/06 02:19:16;;;;;;;9.98;4.20;;;;;;;20.70;62.12;101763.83;2353187;73;51508;-72
2023/10/06 02:22:17;;;;;;;8.68;3.72;;;;;;;20.71;62.10;101763.35;2367069;74;22337;-72
2023/10/06 02:25:23;;;;;;;8.80;3.92;;;;;;;20.70;62.04;101765.69;2367510;75;50767;-72
2023/10/06 02:28:25;;;;;;;7.85;3.52;;;;;;;20.70;62.05;101768.38;2333519;75;50412;-71
2023/10/06 02:31:28;;;;;;;7.12;3.90;;;;;;;20.71;62.11;101766.04;2332380;75;52801;-72
2023/10/06 02:34:35;;;;;;;8.53;3.50;;;;;;;20.71;61.99;101757.97;2367227;75;51515;-72
2023/10/06 02:37:34;;;;;;;7.65;4.05;;;;;;;20.69;62.05;101755.95;2367016;75;22682;-72
2023/10/06 02:40:47;;;;;;;7.05;3.20;;;;;;;20.69;62.06;101758.64;2298932;75;51597;-72
2023/10/06 02:43:50;;;;;;;7.70;3.80;;;;;;;20.69;61.97;101766.20;2335384;75;51626;-71
2023/10/06 02:46:53;;;;;;;7.97;3.58;;;;;;;20.69;62.13;101769.40;2332362;75;51003;-71
2023/10/06 02:49:59;;;;;;;8.08;3.65;;;;;;;20.68;62.07;101770.39;2367787;73;50128;-72
2023/10/06 02:52:59;;;;;;;6.12;3.72;;;;;;;20.68;62.11;101775.29;2378290;74;22412;-72
2023/10/06 02:56:08;;;;;;;11.25;3.95;;;;;;;20.66;62.05;101767.89;2315989;74;52402;-72
2023/10/06 02:59:21;;;;;;;7.62;3.70;;;;;;;20.68;62.24;101767.70;2342043;74;22222;-72
2023/10/06 03:02:26;;;;;;;6.95;3.50;;;;;;;20.67;62.05;101772.24;2346694;74;51474;-72
2023/10/06 03:05:38;;;;;;;8.15;3.50;;;;;;;20.68;62.02;101766.35;2342908;74;22327;-73
2023/10/06 03:08:37;;;;;;;6.37;3.12;;;;;;;20.68;62.01;101760.49;2369406;74;22200;-72
2023/10/06 03:11:40;;;;;;;7.78;3.30;;;;;;;20.68;62.19;101765.87;2341896;74;51028;-72
2023/10/06 03:14:43;;;;;;;5.92;3.30;;;;;;;20.66;62.11;101756.63;2379594;74;51565;-73
2023/10/06 03:17:45;;;;;;;6.15;3.60;;;;;;;20.68;62.12;101754.25;2342001;74;50666;-73
2023/10/06 03:20:47;;;;;;;6.40;3.30;;;;;;;20.66;62.15;101753.09;2345852;74;52499;-72
2023/10/06 03:23:58;;;;;;;6.92;3.20;;;;;;;20.66;62.11;101762.00;2406243;74;51491;-72
2023/10/06 03:26:55;;;;;;;5.72;3.33;;;;;;;20.67;62.15;101753.42;2371932;74;22238;-72
2023/10/06 03:30:07;;;;;;;6.90;3.42;;;;;;;20.67;62.20;101749.38;2373029;74;22771;-72
2023/10/06 03:33:03;;;;;;;5.42;3.15;;;;;;;20.66;62.17;101743.69;2398947;74;22248;-72
2023/10/06 03:36:06;;;;;;;6.00;3.20;;;;;;;20.66;62.05;101736.45;2346161;74;52470;-72
2023/10/06 03:39:10;;;;;;;6.40;3.15;;;;;;;20.65;62.05;101730.75;2372642;74;50689;-72
2023/10/06 03:42:17;;;;;;;5.17;3.08;;;;;;;20.65;62.15;101728.06;2400691;74;23434;-72
2023/10/06 03:45:32;;;;;;;5.53;3.17;;;;;;;20.64;62.08;101732.25;2372308;74;22336;-72
2023/10/06 03:48:31;;;;;;;7.05;3.22;;;;;;;20.65;62.10;101744.67;2369413;74;22307;-72
2023/10/06 03:51:40;;;;;;;5.15;2.95;;;;;;;20.65;62.09;101736.61;2373100;74;50572;-72
2023/10/06 03:54:42;;;;;;;7.37;3.20;;;;;;;20.64;62.19;101741.15;2344045;74;50312;-73
2023/10/06 03:57:45;;;;;;;7.90;3.60;;;;;;;20.64;62.12;101739.80;2369165;74;50289;-72
2023/10/06 04:00:48;;;;;;;5.25;2.90;;;;;;;20.64;62.12;101742.50;2315924;74;52384;-74
2023/10/06 04:03:51;;;;;;;5.15;2.90;;;;;;;20.64;62.11;101735.77;2342043;74;51427;-72
2023/10/06 04:06:56;;;;;;;5.03;3.08;;;;;;;20.64;62.06;101730.39;2379829;74;50718;-72
2023/10/06 04:09:57;;;;;;;5.35;3.10;;;;;;;20.64;62.08;101733.59;2342811;74;23217;-72
2023/10/06 04:13:00;;;;;;;4.90;2.83;;;;;;;20.64;62.09;101743.84;2368962;74;50340;-73
2023/10/06 04:16:02;;;;;;;4.62;2.83;;;;;;;20.64;62.19;101743.00;2342117;74;50195;-72
2023/10/06 04:19:04;;;;;;;6.58;3.02;;;;;;;20.63;62.09;101734.11;2342077;74;50261;-73
2023/10/06 04:22:07;;;;;;;7.17;3.20;;;;;;;20.64;62.30;101737.63;2354016;74;51502;-72
2023/10/06 04:25:10;;;;;;;6.05;3.22;;;;;;;20.62;62.16;101736.44;2324035;74;50081;-73
2023/10/06 04:28:14;;;;;;;6.30;3.02;;;;;;;20.65;62.28;101739.30;2350469;74;50300;-74
2023/10/06 04:31:16;;;;;;;7.00;3.10;;;;;;;20.68;62.31;101742.15;2383574;74;50399;-73
2023/10/06 04:34:22;;;;;;;7.90;2.90;;;;;;;20.69;62.25;101737.12;2322081;74;52464;-74
2023/10/06 04:37:24;;;;;;;9.38;3.20;;;;;;;20.69;62.27;101744.69;2349203;74;22285;-73
2023/10/06 04:40:27;;;;;;;9.90;3.95;;;;;;;20.72;62.54;101732.23;2325323;74;50359;-73
2023/10/06 04:43:29;;;;;;;13.93;3.98;;;;;;;20.74;63.05;101737.45;2326995;74;50261;-73
2023/10/06 04:46:31;;;;;;;21.65;3.90;;;;;;;20.75;62.96;101737.27;2350692;74;50715;-74
2023/10/06 04:49:34;;;;;;;13.40;4.37;;;;;;;20.78;63.29;101736.95;2359546;73;51385;-73
2023/10/06 04:52:37;;;;;;;14.23;4.05;;;;;;;20.79;63.47;101737.78;2366058;74;50693;-73
2023/10/06 04:55:39;;;;;;;14.95;4.55;;;;;;;20.91;63.51;101735.06;2374588;73;51363;-73
2023/10/06 04:58:42;;;;;;;26.52;4.25;;;;;;;20.91;63.79;101741.80;2377521;74;52313;-74
2023/10/06 05:01:45;;;;;;;18.67;4.33;;;;;;;20.84;63.50;101738.11;2350123;74;51526;-73
2023/10/06 05:04:47;;;;;;;17.23;4.25;;;;;;;20.81;63.60;101735.77;2350158;74;50232;-74
2023/10/06 05:07:51;;;;;;;12.33;3.85;;;;;;;20.76;63.75;101732.75;2352610;74;50333;-75
2023/10/06 05:10:55;;;;;;;15.93;3.83;;;;;;;20.73;63.77;101724.52;2376983;74;50256;-74
2023/10/06 05:13:57;;;;;;;15.43;3.72;;;;;;;20.73;63.53;101728.55;2324033;74;51192;-74
2023/10/06 05:17:00;;;;;;;18.05;4.42;;;;;;;20.77;63.39;101720.97;2383405;74;50298;-75
2023/10/06 05:20:03;;;;;;;21.85;4.87;;;;;;;20.76;63.49;101717.44;2372327;73;51282;-75
2023/10/06 05:23:09;;;;;;;17.17;3.87;;;;;;;20.77;63.33;101725.00;2335506;75;52520;-75
2023/10/06 05:26:10;;;;;;;30.08;4.97;;;;;;;20.78;63.21;101733.39;2370920;75;22365;-74
2023/10/06 05:29:14;;;;;;;20.88;4.50;;;;;;;20.73;63.50;101733.06;2336061;75;50238;-74
2023/10/06 05:32:17;;;;;;;21.27;4.15;;;;;;;20.70;63.58;101725.34;2336329;75;51401;-74
2023/10/06 05:35:22;;;;;;;18.87;4.47;;;;;;;20.75;63.50;101727.84;2370996;75;50334;-74
2023/10/06 05:38:23;;;;;;;17.07;4.12;;;;;;;20.75;63.57;101731.05;2363217;75;22358;-75
2023/10/06 05:41:33;;;;;;;21.60;4.33;;;;;;;20.76;63.44;101724.16;2371139;75;50250;-74
2023/10/06 05:44:36;;;;;;;19.67;4.40;;;;;;;20.78;63.29;101728.02;2370886;75;51562;-75
2023/10/06 05:47:38;;;;;;;15.18;4.28;;;;;;;20.78;63.26;101733.39;2309964;75;52326;-74
2023/10/06 05:50:40;;;;;;;19.65;5.47;;;;;;;20.79;63.24;101729.20;2385026;73;51646;-74
2023/10/06 05:53:43;;;;;;;17.77;4.40;;;;;;;20.75;63.59;101734.57;2362896;75;50663;-75
2023/10/06 05:56:47;;;;;;;15.38;4.22;;;;;;;20.74;63.54;101729.38;2335888;75;50235;-74
2023/10/06 05:59:51;;;;;;;20.88;4.55;;;;;;;20.72;63.64;101726.02;2336347;75;51545;-74
2023/10/06 06:03:06;;;;;;;12.40;4.20;;;;;;;20.72;63.55;101730.05;2371119;75;22327;-74
2023/10/06 06:06:08;;;;;;;13.78;4.00;;;;;;;20.72;63.63;101727.36;2362415;75;22238;-74
2023/10/06 06:09:14;;;;;;;17.00;4.50;;;;;;;20.72;63.55;101734.09;2371079;75;52023;-74
2023/10/06 06:12:14;;;;;;;18.00;4.65;;;;;;;20.74;63.70;101736.94;2336273;75;22362;-75
2023/10/06 06:15:16;;;;;;;15.83;4.00;;;;;;;20.74;63.77;101740.14;2335754;75;51540;-74
2023/10/06 06:18:19;;;;;;;18.27;4.53;;;;;;;20.75;63.53;101727.02;2371270;75;50961;-75
2023/10/06 06:21:24;;;;;;;16.87;3.87;;;;;;;20.73;63.58;101737.97;2341796;75;50324;-75
2023/10/06 06:24:25;;;;;;;16.40;3.95;;;;;;;20.75;63.45;101739.12;2355602;75;22655;-75
2023/10/06 06:27:27;;;;;;;17.30;4.05;;;;;;;20.74;63.83;101728.87;2335530;75;52560;-75
2023/10/06 06:30:32;;;;;;;18.70;4.30;;;;;;;20.75;64.43;101738.61;2370958;75;51466;-75
2023/10/06 06:33:35;;;;;;;22.93;4.35;;;;;;;20.78;64.25;101733.39;2355398;75;22157;-74
2023/10/06 06:36:37;;;;;;;22.82;4.95;;;;;;;20.81;64.20;101723.14;2335926;75;23517;-74
2023/10/06 06:39:44;;;;;;;21.75;5.55;;;;;;;20.85;64.43;101723.62;2334255;75;51605;-74
2023/10/06 06:42:43;;;;;;;27.32;5.70;;;;;;;20.84;64.50;101730.03;2335545;75;22932;-75
2023/10/06 06:45:46;;;;;;;17.60;4.80;;;;;;;20.82;64.33;101730.70;2328456;75;50403;-74
2023/10/06 06:48:49;;;;;;;22.82;5.95;;;;;;;20.78;64.63;101733.39;2334937;73;51588;-74
2023/10/06 06:51:52;;;;;;;24.12;5.35;;;;;;;20.76;64.43;101740.30;2346035;75;52535;-74
2023/10/06 06:54:54;;;;;;;19.52;4.83;;;;;;;20.76;64.42;101750.23;2335151;74;50239;-74
2023/10/06 06:58:00;;;;;;;15.65;4.53;;;;;;;20.74;64.40;101733.42;2335258;75;51513;-74
2023/10/06 07:01:04;;;;;;;21.40;4.70;;;;;;;20.76;64.17;101703.16;2336238;74;22336;-73
2023/10/06 07:04:04;;;;;;;15.58;4.70;;;;;;;20.76;64.08;101703.99;2370538;74;22395;-73
2023/10/06 07:07:06;;;;;;;20.37;5.50;;;;;;;20.76;63.99;101727.37;2354592;75;50549;-74
2023/10/06 07:10:11;;;;;;;19.48;4.25;;;;;;;20.74;63.97;101744.17;2355077;74;51486;-73
2023/10/06 07:13:14;;;;;;;21.42;4.45;;;;;;;20.74;63.85;101735.59;2335879;74;50725;-74
2023/10/06 07:16:16;;;;;;;20.08;4.37;;;;;;;20.75;63.79;101733.23;2335573;75;51243;-74
2023/10/06 07:19:19;;;;;;;15.65;3.95;;;;;;;20.75;63.68;101729.70;2355119;73;52595;-74
2023/10/06 07:22:26;;;;;;;15.60;4.17;;;;;;;20.75;63.59;101724.33;2348488;75;50579;-74
2023/10/06 07:25:26;;;;;;;15.70;4.30;;;;;;;20.75;63.54;101723.81;2362427;75;22279;-75
2023/10/06 07:28:31;;;;;;;15.08;3.70;;;;;;;20.74;63.50;101730.73;2362883;75;51527;-74
2023/10/06 07:31:32;;;;;;;14.68;3.87;;;;;;;20.73;63.42;101716.45;2336499;75;22325;-75
2023/10/06 07:34:34;;;;;;;12.37;3.58;;;;;;;20.75;63.32;101720.30;2333752;75;52515;-75
2023/10/06 07:37:37;;;;;;;19.87;4.37;;;;;;;20.75;63.32;101716.26;2370580;75;50684;-74
2023/10/06 07:40:39;;;;;;;17.25;4.12;;;;;;;20.75;63.17;101710.88;2362839;75;51387;-75
2023/10/06 07:43:41;;;;;;;12.47;3.95;;;;;;;20.75;63.15;101698.77;2309542;75;51620;-75
2023/10/06 07:46:46;;;;;;;11.48;3.65;;;;;;;20.75;63.10;101701.47;2362841;75;51430;-74
2023/10/06 07:49:47;;;;;;;12.18;3.85;;;;;;;20.75;63.07;101705.50;2376685;73;22430;-75
2023/10/06 07:52:51;;;;;;;13.72;3.90;;;;;;;20.74;62.98;101704.66;2348379;75;50623;-74
2023/10/06 07:55:53;;;;;;;13.03;3.80;;;;;;;20.75;62.98;101696.08;2334320;75;50032;-75
2023/10/06 07:58:57;;;;;;;15.15;3.72;;;;;;;20.76;62.91;101700.47;2335090;75;52543;-75
2023/10/06 08:01:59;;;;;;;8.48;3.42;;;;;;;20.76;62.88;101716.61;2334445;75;50635;-75
2023/10/06 08:05:01;;;;;;;9.55;3.50;;;;;;;20.76;62.80;101713.41;2309226;75;51499;-75
2023/10/06 08:08:04;;;;;;;8.30;3.45;;;;;;;20.76;62.76;101712.58;2333846;75;50188;-74
2023/10/06 08:11:06;;;;;;;11.85;3.67;;;;;;;20.76;62.78;101695.09;2309687;75;50336;-74
2023/10/06 08:14:11;;;;;;;11.70;3.55;;;;;;;20.77;62.64;101699.45;2370236;75;51473;-75
2023/10/06 08:17:12;;;;;;;12.45;3.72;;;;;;;20.76;62.66;101688.37;2310524;75;22346;-74
2023/10/06 08:20:17;;;;;;;7.25;3.22;;;;;;;20.76;62.65;101685.67;2343117;73;50591;-74
2023/10/06 08:23:19;;;;;;;15.80;4.17;;;;;;;20.73;62.74;101674.76;2314490;75;52455;-74
2023/10/06 08:26:21;;;;;;;9.05;3.33;;;;;;;20.73;62.70;101675.23;2333279;75;50177;-74
2023/10/06 08:29:23;;;;;;;8.13;3.08;;;;;;;20.76;62.62;101676.27;2333442;75;51387;-74
2023/10/06 08:32:26;;;;;;;9.13;3.00;;;;;;;20.76;62.59;101682.48;2332841;75;52754;-74
2023/10/06 08:35:28;;;;;;;9.43;3.45;;;;;;;20.74;62.60;101677.77;2333220;75;51380;-74
2023/10/06 08:38:32;;;;;;;6.75;2.92;;;;;;;20.75;62.50;101665.98;2333290;75;50718;-74
2023/10/06 08:41:37;;;;;;;9.10;3.17;;;;;;;20.77;62.51;101656.41;2360167;75;51591;-74
2023/10/06 08:44:40;;;;;;;9.00;3.27;;;;;;;20.75;62.51;101655.73;2366667;75;51532;-74
2023/10/06 08:47:42;;;;;;;10.28;3.10;;;;;;;20.75;62.49;101653.05;2333302;75;51741;-74
2023/10/06 08:50:44;;;;;;;8.38;3.37;;;;;;;20.73;62.41;101647.00;2383965;73;51479;-74
2023/10/06 08:53:46;;;;;;;9.53;3.70;;;;;;;20.75;62.44;101644.47;2370364;75;50655;-75
2023/10/06 08:56:49;;;;;;;8.50;3.30;;;;;;;20.74;62.46;101650.04;2347806;75;52473;-75
2023/10/06 08:59:51;;;;;;;7.87;3.20;;;;;;;20.72;62.51;101654.23;2370472;75;50391;-74
2023/10/06 09:02:55;;;;;;;12.25;3.42;;;;;;;20.72;62.45;101653.41;2370316;75;50625;-74
2023/10/06 09:05:57;;;;;;;7.67;3.08;;;;;;;20.73;62.42;101647.00;2347756;75;51462;-74
2023/10/06 09:09:01;;;;;;;8.03;2.85;;;;;;;20.71;62.46;101646.36;2374986;74;51344;-74
2023/10/06 09:12:03;;;;;;;8.50;3.10;;;;;;;20.72;62.38;101643.98;2347772;75;51691;-74
2023/10/06 09:15:06;;;;;;;7.15;3.65;;;;;;;20.72;62.39;101640.78;2347556;75;51331;-74
2023/10/06 09:18:20;;;;;;;8.90;3.20;;;;;;;20.73;62.29;101647.86;2347610;75;50099;-73
2023/10/06 09:21:22;;;;;;;7.33;3.30;;;;;;;20.73;62.33;101652.38;2347470;75;51837;-74
2023/10/06 09:24:25;;;;;;;7.92;3.17;;;;;;;20.73;62.23;101647.00;2335535;75;51296;-74
2023/10/06 09:27:28;;;;;;;7.60;3.15;;;;;;;20.71;62.30;101642.32;2363343;75;50025;-74
2023/10/06 09:30:30;;;;;;;7.33;3.22;;;;;;;20.70;62.33;101635.25;2362971;75;50630;-74
2023/10/06 09:33:42;;;;;;;8.38;3.15;;;;;;;20.70;62.34;101633.39;2362418;75;50230;-74
2023/10/06 09:36:44;;;;;;;13.08;4.12;;;;;;;20.70;62.30;101638.77;2335610;75;51831;-75
2023/10/06 09:39:59;;;;;;;5.85;2.75;;;;;;;20.72;62.26;101634.58;2363224;75;50509;-74
2023/10/06 09:43:01;;;;;;;6.35;3.20;;;;;;;20.69;62.36;101620.97;2362355;75;50459;-73
2023/10/06 09:46:08;;;;;;;6.17;3.15;;;;;;;20.68;62.42;101613.92;2335340;75;50811;-73
2023/10/06 09:49:12;;;;;;;9.35;3.50;;;;;;;20.70;62.46;101617.77;2362166;75;51494;-74
2023/10/06 09:52:16;;;;;;;7.57;3.07;;;;;;;20.69;62.35;101608.03;2359695;75;51502;-74
2023/10/06 09:55:21;;;;;;;4.12;2.80;;;;;;;20.69;62.29;101608.86;2363617;75;50276;-74
2023/10/06 09:58:23;;;;;;;7.70;2.90;;;;;;;20.69;62.25;101608.03;2362476;75;50829;-74
2023/10/06 10:01:28;;;;;;;4.53;2.90;;;;;;;20.69;62.26;101594.59;2335763;75;52486;-74
2023/10/06 10:04:30;;;;;;;6.40;2.87;;;;;;;20.68;62.40;101588.38;2336440;75;22484;-74
2023/10/06 10:07:32;;;;;;;6.87;2.90;;;;;;;20.69;62.20;101583.83;2362754;75;51372;-74
2023/10/06 10:10:36;;;;;;;7.08;3.40;;;;;;;20.69;62.25;101582.48;2335593;75;52323;-74
2023/10/06 10:13:49;;;;;;;7.00;2.63;;;;;;;20.69;62.18;101577.11;2335427;75;50466;-74
2023/10/06 10:17:07;;;;;;;5.15;2.90;;;;;;;20.68;62.15;101574.06;2363550;75;50630;-73
2023/10/06 10:20:09;;;;;;;5.55;3.00;;;;;;;20.66;62.18;101568.87;2360376;75;50290;-74
2023/10/06 10:23:16;;;;;;;7.72;3.02;;;;;;;20.68;62.32;101565.52;2319773;76;50202;-74
2023/10/06 10:26:28;;;;;;;5.78;2.67;;;;;;;20.68;62.37;101575.41;2312790;76;52409;-75
2023/10/06 10:29:30;;;;;;;8.68;3.15;;;;;;;20.68;62.18;101573.59;2333618;76;50285;-74
2023/10/06 10:32:32;;;;;;;6.72;2.75;;;;;;;20.69;62.14;101562.31;2314338;76;51486;-74
2023/10/06 10:35:35;;;;;;;6.90;3.20;;;;;;;20.70;62.15;101572.05;2288636;75;51187;-74
2023/10/06 10:38:37;;;;;;;5.12;3.12;;;;;;;20.68;62.02;101566.00;2333603;76;50246;-74
2023/10/06 10:41:40;;;;;;;4.47;2.75;;;;;;;20.66;62.14;101565.68;2338771;76;50680;-75
2023/10/06 10:44:43;;;;;;;4.37;2.47;;;;;;;20.70;61.95;101569.36;2306850;76;50715;-74
2023/10/06 10:47:45;;;;;;;4.47;2.52;;;;;;;20.69;61.90;101560.97;2338701;76;50243;-74
2023/10/06 10:51:07;;;;;;;7.55;2.90;;;;;;;20.70;61.92;101542.46;2351578;75;50742;-74
2023/10/06 10:54:10;;;;;;;8.98;2.75;;;;;;;20.68;61.87;101531.03;2333116;74;50206;-75
2023/10/06 10:57:15;;;;;;;4.47;2.52;;;;;;;20.67;61.91;101534.23;2366989;74;51494;-75
2023/10/06 11:00:20;;;;;;;6.97;2.93;;;;;;;20.69;61.87;101534.08;2331631;75;51875;-74
2023/10/06 11:03:21;;;;;;;7.22;2.75;;;;;;;20.68;61.89;101532.37;2332541;75;22551;-73
2023/10/06 11:06:23;;;;;;;5.17;2.80;;;;;;;20.67;61.85;101538.27;2367116;74;51383;-74
2023/10/06 11:09:28;;;;;;;4.15;2.25;;;;;;;20.68;61.87;101539.97;2367063;75;51253;-74
2023/10/06 11:12:31;;;;;;;4.97;2.72;;;;;;;20.67;61.89;101546.34;2366524;74;51608;-74
2023/10/06 11:15:33;;;;;;;5.00;2.45;;;;;;;20.66;61.84;101542.82;2331864;75;49526;-74
2023/10/06 11:18:41;;;;;;;3.80;2.25;;;;;;;20.65;61.86;101533.09;2331958;75;51370;-74
2023/10/06 11:21:39;;;;;;;4.67;2.40;;;;;;;20.68;61.84;101529.69;2346590;75;22329;-74
2023/10/06 11:24:44;;;;;;;5.30;2.52;;;;;;;20.66;61.77;101532.06;2301091;76;49574;-75
2023/10/06 11:27:47;;;;;;;4.58;2.40;;;;;;;20.67;61.85;101535.59;2338890;76;22352;-74
2023/10/06 11:30:49;;;;;;;6.08;2.90;;;;;;;20.66;61.74;101519.13;2301129;76;50662;-74
2023/10/06 11:33:51;;;;;;;4.33;2.60;;;;;;;20.66;61.78;101518.62;2338499;76;51673;-74
2023/10/06 11:36:57;;;;;;;4.25;2.55;;;;;;;20.66;61.79;101508.37;2338615;76;51396;-75
2023/10/06 11:39:59;;;;;;;5.67;2.90;;;;;;;20.68;61.63;101510.87;2328276;76;52605;-74
2023/10/06 11:43:14;;;;;;;5.05;2.65;;;;;;;20.66;61.62;101511.06;2338751;76;50796;-74
2023/10/06 11:46:17;;;;;;;4.37;2.62;;;;;;;20.66;61.71;101499.80;2339003;76;51440;-74
2023/10/06 11:49:20;;;;;;;4.78;2.85;;;;;;;20.66;61.73;101493.06;2251379;76;51300;-74
2023/10/06 11:52:22;;;;;;;5.20;3.00;;;;;;;20.66;61.65;101474.76;2312928;76;50466;-74
2023/10/06 11:55:25;;;;;;;4.00;2.87;;;;;;;20.66;61.73;101468.87;2330658;76;50321;-73
2023/10/06 11:58:36;;;;;;;5.10;3.12;;;;;;;20.66;61.67;101464.00;2272234;76;50414;-74
2023/10/06 12:01:38;;;;;;;6.03;3.30;;;;;;;20.65;61.62;101457.80;2333952;76;50635;-73
2023/10/06 12:04:40;;;;;;;5.17;3.33;;;;;;;20.66;61.78;101447.87;2322446;76;51410;-75
2023/10/06 12:07:42;;;;;;;4.45;2.92;;;;;;;20.69;61.70;101442.64;2296999;76;50559;-74
2023/10/06 12:10:50;;;;;;;7.65;3.37;;;;;;;20.68;61.72;101424.33;2331005;76;51283;-74
2023/10/06 12:13:53;;;;;;;6.80;2.95;;;;;;;20.70;61.68;101418.75;2326043;76;52478;-73
2023/10/06 12:16:55;;;;;;;6.45;3.33;;;;;;;20.68;61.55;101404.16;2297037;76;50802;-74
2023/10/06 12:19:57;;;;;;;6.00;3.17;;;;;;;20.66;61.71;101401.64;2333275;75;50142;-74
2023/10/06 12:22:59;;;;;;;7.10;3.67;;;;;;;20.68;61.55;101393.89;2339683;73;49914;-74
2023/10/06 12:26:02;;;;;;;6.50;3.60;;;;;;;20.65;61.71;101382.50;2368157;74;50282;-74
2023/10/06 12:29:04;;;;;;;5.47;3.33;;;;;;;20.69;61.60;101385.66;2342088;73;51704;-74
2023/10/06 12:32:07;;;;;;;8.18;3.95;;;;;;;20.68;61.56;101377.75;2361232;74;51316;-74
2023/10/06 12:35:10;;;;;;;7.47;3.62;;;;;;;20.68;61.51;101381.78;2345340;74;51607;-73
2023/10/06 12:38:14;;;;;;;6.70;4.20;;;;;;;20.68;61.61;101396.58;2290851;74;51187;-75
2023/10/06 12:41:17;;;;;;;6.95;3.70;;;;;;;20.65;61.53;101389.22;2361631;74;22251;-73
2023/10/06 12:44:22;;;;;;;6.15;4.25;;;;;;;20.64;61.52;101384.84;2359609;75;50238;-74
2023/10/06 12:47:23;;;;;;;6.05;3.37;;;;;;;20.64;61.55;101386.19;2361170;74;23082;-73
2023/10/06 12:50:26;;;;;;;9.40;3.72;;;;;;;20.63;61.51;101384.52;2361205;74;51560;-75
2023/10/06 12:53:28;;;;;;;5.72;3.60;;;;;;;20.62;61.50;101376.63;2334947;75;51157;-75
2023/10/06 12:56:35;;;;;;;7.65;4.00;;;;;;;20.64;61.54;101384.84;2328222;74;52325;-73
2023/10/06 12:59:57;;;;;;;12.68;4.22;;;;;;;20.66;61.57;101380.13;2379781;74;22323;-70
2023/10/06 13:03:15;;;;;;;15.48;4.62;;;;;;;20.66;61.52;101378.78;2364943;73;21734;-71
2023/10/06 13:06:18;;;;;;;17.02;5.35;;;;;;;20.66;61.53;101365.33;2361121;73;21888;-72
2023/10/06 13:09:39;;;;;;;17.52;4.25;;;;;;;20.65;61.47;101356.95;2361643;75;22249;-72
2023/10/06 13:13:09;;;;;;;14.18;4.83;;;;;;;20.64;61.45;101347.70;2362168;75;22484;-71
2023/10/06 13:16:13;;;;;;;21.70;4.83;;;;;;;20.64;61.40;101348.53;2363382;74;22281;-74
2023/10/06 13:19:17;;;;;;;13.65;4.60;;;;;;;20.64;61.40;101351.23;2360917;75;22901;-75
2023/10/06 13:22:27;;;;;;;18.90;4.45;;;;;;;20.65;61.47;101335.92;2379724;74;49985;-73
2023/10/06 13:25:37;;;;;;;14.47;4.65;;;;;;;20.64;61.45;101339.13;2368935;74;23219;-74
2023/10/06 13:29:04;;;;;;;17.75;5.35;;;;;;;20.62;61.46;101342.50;2369199;75;21655;-73
2023/10/06 13:32:15;;;;;;;11.38;4.15;;;;;;;20.65;61.43;101341.30;2369298;72;22251;-71
2023/10/06 13:35:19;;;;;;;15.20;4.90;;;;;;;20.64;61.44;101340.98;2365695;75;21692;-74
2023/10/06 13:38:39;;;;;;;20.20;4.42;;;;;;;20.64;61.43;101335.09;2369105;75;50553;-71
2023/10/06 13:41:52;;;;;;;12.95;5.10;;;;;;;20.62;61.44;101339.80;2308406;76;22269;-73
2023/10/06 13:45:20;;;;;;;13.20;4.80;;;;;;;20.63;61.46;101348.73;2310239;75;22312;-70
2023/10/06 13:48:43;;;;;;;13.27;4.60;;;;;;;20.63;61.43;101348.22;2156355;81;22677;-71
2023/10/06 13:51:47;;;;;;;10.45;4.67;;;;;;;20.64;61.36;101347.19;2191745;80;50774;-72
2023/10/06 13:54:59;;;;;;;11.12;4.17;;;;;;;20.64;61.34;101341.81;2212837;78;23942;-72
2023/10/06 13:58:21;;;;;;;12.68;5.05;;;;;;;20.65;61.25;101335.92;2189729;80;50888;-74
2023/10/06 14:01:28;;;;;;;12.40;4.70;;;;;;;20.62;61.31;101331.73;2212764;79;21892;-72
2023/10/06 14:05:00;;;;;;;8.13;4.87;;;;;;;20.64;61.28;101331.06;2159274;81;21912;-73
2023/10/06 14:08:27;;;;;;;12.25;5.00;;;;;;;20.61;61.33;101313.95;2147836;81;21724;-72
2023/10/06 14:11:30;;;;;;;9.28;4.37;;;;;;;20.62;61.38;101315.61;2146212;81;22681;-75
2023/10/06 14:17:56;;;;;;;9.60;4.78;;;;;;;20.62;61.26;101308.05;2151736;81;21781;-73
2023/10/06 14:21:06;;;;;;;11.03;4.75;;;;;;;20.62;61.22;101300.81;2169512;81;51598;-73